Time;durP1;ratioP1;P1;durP2;ratioP2;P2;SDS_P1;SDS_P2;PMS_P1;PMS_P2;Temp;Humidity;BMP_temperature;BMP_pressure;BME280_temperature;BME280_humidity;BME280_pressure;Samples;Min_cycle;Max_cycle;Signal;HPM_P1;HPM_P2
2022/01/06 00:00:22;;;;;;;11.85;1.90;;;4.00;99.90;;;;;;5118129;27;20481;-57
2022/01/06 00:02:48;;;;;;;10.63;1.98;;;3.90;99.90;;;;;;5115933;27;20043;-57
2022/01/06 00:05:14;;;;;;;16.13;2.20;;;3.80;99.90;;;;;;5116964;27;20043;-57
2022/01/06 00:07:40;;;;;;;11.18;2.03;;;3.80;99.90;;;;;;5080062;27;20043;-58
2022/01/06 00:10:11;;;;;;;11.95;2.25;;;3.80;99.90;;;;;;5114800;27;20482;-58
2022/01/06 00:12:45;;;;;;;15.52;2.10;;;3.80;99.90;;;;;;5109808;27;20075;-56
2022/01/06 00:15:28;;;;;;;14.20;2.35;;;3.70;99.90;;;;;;5096985;27;20091;-58
2022/01/06 00:25:51;;;;;;;19.23;3.55;;;3.50;99.90;;;;;;5120465;27;20055;-59
2022/01/06 00:28:17;;;;;;;15.75;2.85;;;3.50;99.90;;;;;;5115499;27;20039;-58
2022/01/06 00:30:43;;;;;;;22.67;3.08;;;3.50;99.90;;;;;;5117785;27;20064;-57
2022/01/06 00:33:09;;;;;;;21.23;3.53;;;3.50;99.90;;;;;;5073032;27;20115;-58
2022/01/06 00:35:35;;;;;;;25.40;3.58;;;3.50;99.90;;;;;;5115994;27;20926;-57
2022/01/06 00:38:01;;;;;;;21.10;3.60;;;3.60;99.90;;;;;;5115789;27;20047;-58
2022/01/06 00:40:27;;;;;;;23.63;3.53;;;3.50;99.90;;;;;;5114096;27;20482;-57
2022/01/06 00:42:53;;;;;;;19.80;3.70;;;3.50;99.90;;;;;;5099070;27;20058;-57
2022/01/06 00:45:19;;;;;;;15.63;2.60;;;3.50;99.90;;;;;;5113862;27;20139;-59
2022/01/06 00:47:44;;;;;;;19.15;3.85;;;3.50;99.90;;;;;;5118255;27;20052;-58
2022/01/06 00:50:11;;;;;;;20.85;2.63;;;3.50;99.90;;;;;;5113677;27;20058;-57
2022/01/06 00:52:37;;;;;;;20.58;2.97;;;3.70;99.90;;;;;;5082460;27;20524;-56
2022/01/06 00:55:04;;;;;;;23.98;3.50;;;3.70;99.90;;;;;;5079072;27;20051;-55
2022/01/06 00:57:30;;;;;;;24.88;2.95;;;3.80;99.90;;;;;;5094372;27;20051;-58
2022/01/06 00:59:56;;;;;;;19.83;2.95;;;3.80;99.90;;;;;;5115961;27;20054;-58
2022/01/06 01:02:22;;;;;;;20.17;3.15;;;3.80;99.90;;;;;;5113918;27;20051;-58
2022/01/06 01:04:48;;;;;;;22.52;3.10;;;3.80;99.90;;;;;;5098609;27;20074;-59
2022/01/06 01:07:14;;;;;;;19.33;3.58;;;3.80;99.90;;;;;;5108680;27;20039;-57
2022/01/06 01:09:40;;;;;;;13.95;2.63;;;3.70;99.90;;;;;;5114462;27;20099;-56
2022/01/06 01:12:06;;;;;;;15.73;3.17;;;3.70;99.90;;;;;;5118852;27;20035;-58
2022/01/06 01:14:43;;;;;;;18.77;2.65;;;3.60;99.90;;;;;;5114465;27;20173;-57
2022/01/06 01:17:14;;;;;;;18.60;3.63;;;3.60;99.90;;;;;;5117993;27;20143;-58
2022/01/06 01:19:40;;;;;;;18.55;2.85;;;3.60;99.90;;;;;;5113874;27;20513;-58
2022/01/06 01:22:08;;;;;;;21.73;4.40;;;3.70;99.90;;;;;;5112684;27;20043;-57
2022/01/06 01:24:34;;;;;;;17.85;3.13;;;3.60;99.90;;;;;;5114455;27;20527;-59
2022/01/06 01:27:00;;;;;;;22.00;4.68;;;3.60;99.90;;;;;;5086984;27;20047;-56
2022/01/06 01:29:27;;;;;;;28.10;3.85;;;3.60;99.90;;;;;;5078515;27;20035;-58
2022/01/06 01:31:55;;;;;;;14.95;3.22;;;3.60;99.90;;;;;;5116933;27;20061;-58
2022/01/06 01:34:25;;;;;;;19.80;3.50;;;3.70;99.90;;;;;;5113668;27;20090;-58
2022/01/06 01:36:52;;;;;;;22.38;3.13;;;3.70;99.90;;;;;;5096311;27;20132;-57
2022/01/06 01:39:18;;;;;;;16.55;3.13;;;3.80;99.90;;;;;;5116663;27;20069;-59
2022/01/06 01:41:44;;;;;;;21.80;3.22;;;3.80;99.90;;;;;;5114813;27;20047;-56
2022/01/06 01:44:16;;;;;;;16.05;3.05;;;3.80;99.90;;;;;;5116016;27;20043;-59
2022/01/06 01:46:46;;;;;;;16.85;2.50;;;3.80;99.90;;;;;;5096898;27;20046;-58
2022/01/06 01:49:49;;;;;;;19.80;2.90;;;3.80;99.90;;;;;;5097917;27;20047;-59
2022/01/06 01:52:00;;;;;;;14.98;2.47;;;3.80;99.90;;;;;;5114600;27;20077;-58
2022/01/06 01:54:26;;;;;;;13.93;2.10;;;3.70;99.90;;;;;;5097445;27;20478;-57
2022/01/06 01:56:52;;;;;;;17.23;2.40;;;3.70;99.90;;;;;;5118959;27;20454;-57
2022/01/06 01:59:18;;;;;;;14.90;2.35;;;3.60;99.90;;;;;;5113117;27;20043;-57
2022/01/06 02:01:44;;;;;;;13.77;2.53;;;3.60;99.90;;;;;;5112767;27;20622;-58
2022/01/06 02:04:09;;;;;;;14.60;2.40;;;3.60;99.90;;;;;;5108669;27;20043;-56
2022/01/06 02:06:35;;;;;;;9.32;2.67;;;3.50;99.90;;;;;;5118680;27;20740;-56
2022/01/06 02:09:01;;;;;;;14.73;3.00;;;3.50;99.90;;;;;;5113515;27;20456;-55
2022/01/06 02:11:27;;;;;;;14.57;2.70;;;3.40;99.90;;;;;;5114261;27;20397;-58
2022/01/06 02:13:55;;;;;;;22.05;2.63;;;3.40;99.90;;;;;;5112911;27;20050;-58
2022/01/06 02:16:23;;;;;;;10.98;2.30;;;3.40;99.90;;;;;;5112603;27;20051;-57
2022/01/06 02:18:49;;;;;;;18.63;2.65;;;3.30;99.90;;;;;;5087476;27;20677;-58
2022/01/06 02:21:16;;;;;;;15.00;3.08;;;3.30;99.90;;;;;;5114012;27;20051;-57
2022/01/06 02:23:42;;;;;;;11.77;2.47;;;3.20;99.90;;;;;;5111386;27;20059;-57
2022/01/06 02:26:08;;;;;;;16.73;2.40;;;3.20;99.90;;;;;;5094588;27;20083;-59
2022/01/06 02:28:34;;;;;;;21.15;3.22;;;3.20;99.90;;;;;;5115115;27;20388;-57
2022/01/06 02:31:00;;;;;;;14.65;3.00;;;3.10;99.90;;;;;;5115317;27;20031;-56
2022/01/06 02:33:27;;;;;;;19.67;2.60;;;3.00;99.90;;;;;;5096644;27;20471;-56
2022/01/06 02:35:54;;;;;;;20.90;2.47;;;3.00;99.90;;;;;;5096402;27;20043;-56
2022/01/06 02:38:20;;;;;;;17.83;2.50;;;2.90;99.90;;;;;;5109617;27;20078;-57
2022/01/06 02:40:47;;;;;;;23.05;3.05;;;2.90;99.90;;;;;;5113751;27;20543;-58
2022/01/06 02:43:16;;;;;;;27.10;2.90;;;2.80;99.90;;;;;;5113974;27;20050;-58
2022/01/06 02:45:43;;;;;;;25.15;2.95;;;2.90;99.90;;;;;;5111879;27;20051;-58
2022/01/06 02:48:09;;;;;;;22.48;3.65;;;2.80;99.90;;;;;;5115738;27;20061;-58
2022/01/06 02:50:41;;;;;;;28.77;3.72;;;2.90;99.90;;;;;;5108207;27;20043;-58
2022/01/06 02:53:08;;;;;;;22.25;3.95;;;2.90;99.90;;;;;;5110635;27;20477;-58
2022/01/06 02:55:35;;;;;;;35.15;4.38;;;3.00;99.90;;;;;;5113735;27;20093;-59
2022/01/06 02:58:01;;;;;;;23.00;3.22;;;2.90;99.90;;;;;;5087724;27;20048;-58
2022/01/06 03:00:28;;;;;;;26.08;3.70;;;3.00;99.90;;;;;;5091401;27;20058;-58
2022/01/06 03:02:54;;;;;;;20.77;3.83;;;2.90;99.90;;;;;;5110543;27;20501;-58
2022/01/06 03:05:20;;;;;;;20.67;3.20;;;2.90;99.90;;;;;;5093321;27;20075;-58
2022/01/06 03:07:46;;;;;;;17.30;3.33;;;3.00;99.90;;;;;;5096189;27;20469;-56
2022/01/06 03:10:15;;;;;;;20.42;3.33;;;3.00;99.90;;;;;;5112590;27;20512;-58
2022/01/06 03:12:45;;;;;;;21.20;3.50;;;2.90;99.90;;;;;;5113009;27;20062;-56
2022/01/06 03:15:13;;;;;;;26.85;4.35;;;2.90;99.90;;;;;;5111172;27;20052;-59
2022/01/06 03:17:41;;;;;;;22.45;3.35;;;2.90;99.90;;;;;;5112620;27;20097;-58
2022/01/06 03:20:10;;;;;;;19.40;3.17;;;2.90;99.90;;;;;;5108747;27;20069;-57
2022/01/06 03:22:35;;;;;;;23.42;3.85;;;2.90;99.90;;;;;;5110846;27;20039;-59
2022/01/06 03:25:02;;;;;;;21.75;3.08;;;2.80;99.90;;;;;;5090857;27;20416;-58
2022/01/06 03:27:28;;;;;;;15.30;3.30;;;2.80;99.90;;;;;;5095161;27;20040;-57
2022/01/06 03:29:54;;;;;;;21.73;3.28;;;2.70;99.90;;;;;;5093762;27;20299;-57
2022/01/06 03:32:20;;;;;;;21.45;2.97;;;2.70;99.90;;;;;;5115552;27;20051;-59
2022/01/06 03:34:48;;;;;;;19.35;3.00;;;2.60;99.90;;;;;;5116806;27;20285;-57
2022/01/06 03:37:14;;;;;;;26.45;3.00;;;2.60;99.90;;;;;;5117053;27;20086;-59
2022/01/06 03:39:42;;;;;;;20.95;3.28;;;2.60;99.90;;;;;;5118129;27;20043;-57
2022/01/06 03:42:09;;;;;;;21.95;3.25;;;2.50;99.90;;;;;;5116760;27;20060;-58
2022/01/06 03:44:35;;;;;;;20.95;3.38;;;2.50;99.90;;;;;;5114034;27;20047;-58
2022/01/06 03:47:01;;;;;;;21.77;3.15;;;2.50;99.90;;;;;;5116618;27;20374;-58
2022/01/06 03:49:27;;;;;;;18.30;3.05;;;2.40;99.90;;;;;;5115981;27;20035;-57
2022/01/06 03:51:53;;;;;;;18.45;3.08;;;2.40;99.90;;;;;;5116934;27;20047;-58
2022/01/06 03:54:19;;;;;;;17.90;3.55;;;2.40;99.90;;;;;;5117416;27;20038;-56
2022/01/06 03:56:48;;;;;;;26.23;3.45;;;2.30;99.90;;;;;;5098935;27;20543;-57
2022/01/06 03:59:15;;;;;;;17.05;3.03;;;2.30;99.90;;;;;;5096736;27;20103;-58
2022/01/06 04:01:41;;;;;;;16.48;3.05;;;2.30;99.90;;;;;;5112944;27;20058;-57
2022/01/06 04:04:06;;;;;;;21.23;3.15;;;2.20;99.90;;;;;;5113304;27;20043;-58
2022/01/06 04:06:32;;;;;;;10.70;2.38;;;2.20;99.90;;;;;;5115675;27;20038;-55
2022/01/06 04:08:58;;;;;;;19.88;3.15;;;2.10;99.90;;;;;;5089309;27;20740;-57
2022/01/06 04:11:24;;;;;;;27.45;3.80;;;2.20;99.90;;;;;;5119318;27;20164;-57
2022/01/06 04:13:50;;;;;;;16.77;3.22;;;2.10;99.90;;;;;;5100543;27;20142;-57
2022/01/06 04:16:17;;;;;;;24.50;3.50;;;2.10;99.90;;;;;;5114501;27;20657;-57
2022/01/06 04:18:43;;;;;;;25.23;3.80;;;2.00;99.90;;;;;;5109901;27;20070;-57
2022/01/06 04:21:09;;;;;;;15.13;2.70;;;2.00;99.90;;;;;;5114408;27;20513;-56
2022/01/06 04:23:35;;;;;;;14.57;3.50;;;2.10;99.90;;;;;;5114116;27;20047;-59
2022/01/06 04:26:01;;;;;;;36.25;4.30;;;2.00;99.90;;;;;;5078038;27;20109;-58
2022/01/06 04:28:27;;;;;;;14.85;2.90;;;2.00;99.90;;;;;;5069845;28;20124;-58
2022/01/06 04:30:53;;;;;;;18.23;3.72;;;2.00;99.90;;;;;;5065718;28;20455;-59
2022/01/06 04:33:19;;;;;;;20.00;3.42;;;2.00;99.90;;;;;;5048244;28;20060;-57
2022/01/06 04:35:45;;;;;;;18.15;2.67;;;2.00;99.90;;;;;;5082310;27;20796;-58
2022/01/06 04:38:11;;;;;;;19.63;3.00;;;2.00;99.90;;;;;;5066947;28;20143;-58
2022/01/06 04:40:37;;;;;;;22.08;3.85;;;2.00;99.90;;;;;;5064904;28;20430;-57
2022/01/06 04:43:03;;;;;;;28.80;3.65;;;2.00;99.90;;;;;;5081151;28;20487;-56
2022/01/06 04:45:29;;;;;;;22.25;3.22;;;1.90;99.90;;;;;;5066928;28;20382;-58
2022/01/06 04:47:55;;;;;;;22.23;3.58;;;1.90;99.90;;;;;;5068511;28;20044;-57
2022/01/06 04:50:21;;;;;;;16.80;3.60;;;1.90;99.90;;;;;;5065821;28;20055;-56
2022/01/06 04:52:46;;;;;;;18.75;3.47;;;1.80;99.90;;;;;;5065475;28;20442;-58
2022/01/06 04:55:12;;;;;;;17.05;3.55;;;1.80;99.90;;;;;;5067352;28;20131;-57
2022/01/06 04:57:38;;;;;;;16.77;3.33;;;1.80;99.90;;;;;;5066999;28;20048;-58
2022/01/06 05:00:05;;;;;;;26.15;3.85;;;1.80;99.90;;;;;;5065484;28;20049;-57
2022/01/06 05:02:31;;;;;;;18.08;3.17;;;1.80;99.90;;;;;;5065588;28;20130;-57
2022/01/06 05:04:57;;;;;;;25.33;3.95;;;1.80;99.90;;;;;;5066003;28;20048;-55
2022/01/06 05:07:23;;;;;;;25.90;3.53;;;1.80;99.90;;;;;;5061001;28;20040;-57
2022/01/06 05:09:49;;;;;;;27.80;3.17;;;1.80;99.90;;;;;;5065424;28;20571;-57
2022/01/06 05:12:15;;;;;;;27.58;4.68;;;1.80;99.90;;;;;;5067386;28;20075;-58
2022/01/06 05:14:42;;;;;;;21.58;3.40;;;1.80;99.90;;;;;;5066024;28;20055;-58
2022/01/06 05:17:08;;;;;;;12.43;2.20;;;1.70;99.90;;;;;;5066225;28;20044;-57
2022/01/06 05:19:34;;;;;;;21.05;3.75;;;1.70;99.90;;;;;;5065424;28;20475;-56
2022/01/06 05:22:01;;;;;;;19.38;3.50;;;1.70;99.90;;;;;;5066598;28;20043;-58
2022/01/06 05:24:26;;;;;;;22.45;4.82;;;1.60;99.90;;;;;;5067690;27;20052;-58
2022/01/06 05:26:57;;;;;;;12.93;3.10;;;1.60;99.90;;;;;;5100330;27;20410;-56
2022/01/06 05:29:23;;;;;;;16.33;2.90;;;1.50;99.90;;;;;;5079903;27;20069;-57
2022/01/06 05:31:50;;;;;;;19.70;3.00;;;1.50;99.90;;;;;;5096780;27;20053;-58
2022/01/06 05:34:16;;;;;;;21.63;3.58;;;1.50;99.90;;;;;;5110844;27;20575;-57
2022/01/06 05:36:42;;;;;;;24.30;4.03;;;1.40;99.90;;;;;;5117295;27;20177;-56
2022/01/06 05:39:07;;;;;;;27.40;3.08;;;1.40;99.90;;;;;;5110678;27;20061;-59
2022/01/06 05:41:34;;;;;;;22.52;3.67;;;1.40;99.90;;;;;;5113917;27;20047;-56
2022/01/06 05:44:00;;;;;;;24.42;3.78;;;1.40;99.90;;;;;;5114286;27;20495;-59
2022/01/06 05:46:26;;;;;;;18.02;3.03;;;1.30;99.90;;;;;;5096629;27;20050;-56
2022/01/06 05:48:52;;;;;;;16.02;3.15;;;1.30;99.90;;;;;;5098137;27;20250;-58
2022/01/06 05:51:18;;;;;;;20.58;3.63;;;1.30;99.90;;;;;;5116422;27;20043;-57
2022/01/06 05:53:44;;;;;;;26.00;3.25;;;1.20;99.90;;;;;;5090482;27;20031;-55
2022/01/06 05:56:10;;;;;;;20.92;3.10;;;1.20;99.90;;;;;;5116210;27;20386;-56
2022/01/06 05:58:39;;;;;;;19.63;3.20;;;1.20;99.90;;;;;;5117512;27;20038;-57
2022/01/06 06:01:06;;;;;;;20.05;3.03;;;1.10;99.90;;;;;;5115344;27;20501;-58
2022/01/06 06:03:32;;;;;;;20.45;2.95;;;1.10;99.90;;;;;;5121865;27;20058;-56
2022/01/06 06:05:57;;;;;;;23.65;3.47;;;1.10;99.90;;;;;;5127200;27;20042;-56
2022/01/06 06:08:23;;;;;;;23.02;3.60;;;1.10;99.90;;;;;;5080450;27;20066;-57
2022/01/06 06:10:49;;;;;;;20.60;3.83;;;1.10;99.90;;;;;;5124002;27;20122;-57
2022/01/06 06:13:15;;;;;;;27.92;3.97;;;1.10;99.90;;;;;;5131370;27;20043;-56
2022/01/06 06:15:41;;;;;;;17.92;3.30;;;1.10;99.90;;;;;;5123508;27;20129;-58
2022/01/06 06:18:10;;;;;;;17.83;3.35;;;1.10;99.90;;;;;;5127677;27;20051;-57
2022/01/06 06:20:36;;;;;;;35.50;4.45;;;1.10;99.90;;;;;;5126763;27;20050;-56
2022/01/06 06:23:02;;;;;;;17.30;3.42;;;1.10;99.90;;;;;;5126840;27;20541;-59
2022/01/06 06:25:28;;;;;;;17.50;4.32;;;1.10;99.90;;;;;;5127113;27;20120;-58
2022/01/06 06:27:54;;;;;;;22.08;3.53;;;1.10;99.90;;;;;;5130534;27;20044;-58
2022/01/06 06:30:20;;;;;;;18.92;3.25;;;1.00;99.90;;;;;;5122255;27;20047;-58
2022/01/06 06:32:46;;;;;;;18.10;3.45;;;1.00;99.90;;;;;;5117645;27;20509;-58
2022/01/06 06:35:12;;;;;;;24.52;3.78;;;1.00;99.90;;;;;;5114549;27;20066;-58
2022/01/06 06:37:38;;;;;;;22.13;3.33;;;0.90;99.90;;;;;;5089862;27;20043;-57
2022/01/06 06:40:06;;;;;;;26.40;4.10;;;0.90;99.90;;;;;;5126071;27;20039;-56
2022/01/06 06:42:32;;;;;;;15.90;3.25;;;0.90;99.90;;;;;;5123456;27;21172;-57
2022/01/06 06:44:58;;;;;;;15.13;3.17;;;0.90;99.90;;;;;;5125717;27;20044;-58
2022/01/06 06:47:24;;;;;;;14.68;3.45;;;0.90;99.90;;;;;;5091824;27;20417;-56
2022/01/06 06:49:50;;;;;;;20.50;3.50;;;0.80;99.90;;;;;;5106401;27;20377;-58
2022/01/06 06:52:17;;;;;;;20.35;3.75;;;0.80;99.90;;;;;;5130938;27;20168;-58
2022/01/06 06:54:43;;;;;;;14.48;3.10;;;0.80;99.90;;;;;;5126780;27;20409;-56
2022/01/06 06:57:09;;;;;;;28.10;4.25;;;0.80;99.90;;;;;;5102073;27;20067;-58
2022/01/06 06:59:35;;;;;;;19.95;3.72;;;0.80;99.90;;;;;;5104782;27;20043;-58
2022/01/06 07:02:01;;;;;;;17.65;3.17;;;0.80;99.90;;;;;;5127047;27;20117;-58
2022/01/06 07:04:27;;;;;;;18.48;3.17;;;0.70;99.90;;;;;;5121531;27;20047;-57
2022/01/06 07:06:53;;;;;;;20.63;3.13;;;0.70;99.90;;;;;;5106700;27;20035;-58
2022/01/06 07:09:21;;;;;;;14.35;3.10;;;0.70;99.90;;;;;;5126413;27;20092;-58
2022/01/06 07:11:47;;;;;;;28.80;3.95;;;0.70;99.90;;;;;;5124859;27;20039;-58
2022/01/06 07:14:13;;;;;;;21.17;3.50;;;0.70;99.90;;;;;;5123763;27;20043;-57
2022/01/06 07:16:39;;;;;;;13.32;2.83;;;0.70;99.90;;;;;;5116917;27;20588;-58
2022/01/06 07:19:05;;;;;;;15.85;3.22;;;0.70;99.90;;;;;;5123089;27;20375;-57
2022/01/06 07:21:30;;;;;;;17.48;3.83;;;0.70;99.90;;;;;;5100864;27;20043;-59
2022/01/06 07:23:56;;;;;;;17.48;4.03;;;0.60;99.90;;;;;;5118733;27;20378;-59
2022/01/06 07:26:22;;;;;;;20.00;3.63;;;0.60;99.90;;;;;;5114666;27;20051;-56
2022/01/06 07:28:48;;;;;;;20.27;3.28;;;0.70;99.90;;;;;;5096195;27;20043;-58
2022/01/06 07:31:13;;;;;;;21.23;3.75;;;0.70;99.90;;;;;;5093449;27;20133;-57
2022/01/06 07:33:39;;;;;;;19.63;3.95;;;0.70;99.90;;;;;;5113152;27;20069;-57
2022/01/06 07:36:05;;;;;;;22.60;3.20;;;0.70;99.90;;;;;;5062235;27;20047;-58
2022/01/06 07:38:31;;;;;;;30.38;4.50;;;0.70;99.90;;;;;;5110830;27;20439;-56
2022/01/06 07:40:57;;;;;;;21.95;3.75;;;0.70;99.90;;;;;;5112833;27;20554;-58
2022/01/06 07:43:25;;;;;;;27.17;3.67;;;0.70;99.90;;;;;;5095617;27;20100;-58
2022/01/06 07:45:51;;;;;;;17.38;3.40;;;0.70;99.90;;;;;;5110741;27;20047;-57
2022/01/06 07:48:24;;;;;;;23.00;3.55;;;0.70;99.90;;;;;;5112371;27;20554;-57
2022/01/06 07:50:51;;;;;;;21.75;4.00;;;0.70;99.90;;;;;;5113620;27;20043;-58
2022/01/06 07:53:17;;;;;;;21.73;3.05;;;0.70;99.90;;;;;;5114586;27;20089;-56
2022/01/06 07:55:43;;;;;;;18.20;3.47;;;0.70;99.90;;;;;;5107794;27;20039;-56
2022/01/06 07:58:09;;;;;;;19.77;3.78;;;0.70;99.90;;;;;;5109652;27;20054;-57
2022/01/06 08:00:35;;;;;;;21.75;4.13;;;0.70;99.90;;;;;;5108074;27;20095;-58
2022/01/06 08:03:01;;;;;;;21.35;3.40;;;0.70;99.90;;;;;;5112027;27;20129;-58
2022/01/06 08:05:27;;;;;;;21.77;4.05;;;0.70;99.90;;;;;;5103519;27;20562;-58
2022/01/06 08:07:54;;;;;;;21.25;3.50;;;0.70;99.90;;;;;;5104808;27;20043;-58
2022/01/06 08:10:21;;;;;;;18.58;3.22;;;0.70;99.90;;;;;;5087902;27;20078;-58
2022/01/06 08:12:47;;;;;;;32.35;4.53;;;0.70;99.90;;;;;;5112273;27;20474;-57
2022/01/06 08:15:16;;;;;;;33.72;5.55;;;0.90;99.90;;;;;;5120491;27;20045;-56
2022/01/06 08:17:43;;;;;;;25.80;3.63;;;0.80;99.90;;;;;;5119221;27;20039;-56
2022/01/06 08:20:10;;;;;;;25.48;3.58;;;0.80;99.90;;;;;;5125532;27;20051;-57
2022/01/06 08:22:36;;;;;;;22.40;3.72;;;0.80;99.90;;;;;;5115099;27;20451;-58
2022/01/06 08:25:05;;;;;;;20.20;3.15;;;0.80;99.90;;;;;;5111575;27;20247;-58
2022/01/06 08:27:31;;;;;;;21.13;3.55;;;0.90;99.90;;;;;;5134012;27;20039;-57
2022/01/06 08:29:57;;;;;;;16.15;3.13;;;0.90;99.90;;;;;;5133854;27;20045;-59
2022/01/06 08:32:22;;;;;;;22.20;4.68;;;0.90;99.90;;;;;;5094660;27;20054;-58
2022/01/06 08:34:48;;;;;;;23.95;3.53;;;0.90;99.90;;;;;;5134424;27;20038;-57
2022/01/06 08:37:14;;;;;;;22.90;4.05;;;0.90;99.90;;;;;;5135986;27;20035;-58
2022/01/06 08:39:41;;;;;;;25.75;3.97;;;0.90;99.90;;;;;;5129355;27;20050;-56
2022/01/06 08:42:07;;;;;;;23.15;4.00;;;0.80;99.90;;;;;;5130572;27;20046;-57
2022/01/06 08:44:33;;;;;;;22.08;3.35;;;0.90;99.90;;;;;;5135705;27;20404;-58
2022/01/06 08:47:01;;;;;;;25.42;5.32;;;0.90;99.90;;;;;;5113248;27;20046;-57
2022/01/06 08:49:28;;;;;;;22.55;3.75;;;0.90;99.90;;;;;;5128787;27;20072;-58
2022/01/06 08:51:54;;;;;;;22.58;4.03;;;0.90;99.90;;;;;;5126516;27;20039;-58
2022/01/06 08:54:20;;;;;;;26.13;3.50;;;0.90;99.90;;;;;;5128144;27;20054;-58
2022/01/06 08:56:45;;;;;;;27.23;6.00;;;0.90;99.90;;;;;;5128914;27;20490;-58
2022/01/06 08:59:11;;;;;;;21.33;4.68;;;0.90;99.90;;;;;;5131198;27;20096;-59
2022/01/06 09:01:37;;;;;;;20.48;4.47;;;0.90;99.90;;;;;;5128885;27;20043;-58
2022/01/06 09:04:03;;;;;;;24.25;5.65;;;0.90;99.90;;;;;;5126970;27;20061;-57
2022/01/06 09:06:29;;;;;;;18.85;3.83;;;0.90;99.90;;;;;;5127312;27;20050;-57
2022/01/06 09:08:55;;;;;;;18.52;3.75;;;0.90;99.90;;;;;;5131756;27;20043;-57
2022/01/06 09:11:21;;;;;;;29.20;3.80;;;0.90;99.90;;;;;;5134268;27;20080;-57
2022/01/06 09:13:47;;;;;;;20.08;5.65;;;0.90;99.90;;;;;;5098619;27;20085;-58
2022/01/06 09:16:13;;;;;;;20.15;4.00;;;0.90;99.90;;;;;;5133378;27;20409;-58
2022/01/06 09:18:40;;;;;;;25.63;4.30;;;0.90;99.90;;;;;;5129696;27;20046;-56
2022/01/06 09:21:07;;;;;;;25.98;4.43;;;1.00;99.90;;;;;;5097692;27;20096;-57
2022/01/06 09:23:34;;;;;;;22.02;4.43;;;1.00;99.90;;;;;;5109229;27;20046;-57
2022/01/06 09:26:00;;;;;;;23.17;4.43;;;1.00;99.90;;;;;;5128696;27;20409;-57
2022/01/06 09:28:26;;;;;;;20.10;4.63;;;1.10;99.90;;;;;;5126690;27;20042;-58
2022/01/06 09:30:56;;;;;;;22.35;4.00;;;1.10;99.90;;;;;;5133019;27;20039;-59
2022/01/06 09:33:24;;;;;;;24.08;4.35;;;1.10;99.90;;;;;;5128737;27;20046;-57
2022/01/06 09:35:54;;;;;;;17.70;3.90;;;1.20;99.90;;;;;;5110688;27;20043;-56
2022/01/06 09:38:21;;;;;;;19.92;3.80;;;1.30;99.90;;;;;;5132264;27;20046;-57
2022/01/06 09:40:47;;;;;;;26.88;5.03;;;1.30;99.90;;;;;;5110888;27;20061;-57
2022/01/06 09:43:13;;;;;;;22.52;4.00;;;1.40;99.90;;;;;;5116093;27;20039;-57
2022/01/06 09:45:40;;;;;;;30.25;4.28;;;1.40;99.90;;;;;;5126554;27;20430;-57
2022/01/06 09:48:08;;;;;;;18.45;4.10;;;1.50;99.90;;;;;;5131080;27;20031;-58
2022/01/06 09:50:35;;;;;;;27.13;4.50;;;1.60;99.90;;;;;;5128944;27;20461;-58
2022/01/06 09:53:01;;;;;;;17.33;4.68;;;1.60;99.90;;;;;;5131532;27;20408;-58
2022/01/06 09:55:27;;;;;;;23.33;4.18;;;1.70;99.90;;;;;;5131537;27;20050;-58
2022/01/06 09:57:58;;;;;;;23.00;4.10;;;1.80;99.90;;;;;;5131912;27;20039;-57
2022/01/06 10:00:28;;;;;;;31.38;5.05;;;1.90;99.90;;;;;;5131576;27;20042;-57
2022/01/06 10:03:00;;;;;;;19.40;4.45;;;2.00;99.90;;;;;;5110753;27;20143;-57
2022/01/06 10:05:35;;;;;;;20.48;4.57;;;2.10;99.90;;;;;;5126489;27;20115;-57
2022/01/06 10:08:01;;;;;;;23.48;4.00;;;2.30;99.90;;;;;;5129745;27;20100;-57
2022/01/06 10:10:27;;;;;;;25.90;4.35;;;2.40;99.90;;;;;;5130894;27;20038;-58
2022/01/06 10:13:00;;;;;;;23.50;4.72;;;2.50;99.90;;;;;;5127572;27;20054;-56
2022/01/06 10:15:28;;;;;;;24.90;4.68;;;2.60;99.90;;;;;;5132154;27;20035;-56
2022/01/06 10:17:55;;;;;;;21.08;4.60;;;2.70;99.90;;;;;;5118907;27;20042;-58
2022/01/06 10:20:26;;;;;;;25.20;4.07;;;2.80;99.90;;;;;;5126110;27;20051;-58
2022/01/06 10:22:53;;;;;;;22.33;4.38;;;3.00;99.90;;;;;;5134515;27;20038;-58
2022/01/06 10:25:24;;;;;;;17.98;4.20;;;3.10;99.90;;;;;;5129202;27;20089;-57
2022/01/06 10:27:52;;;;;;;29.20;5.13;;;3.20;99.90;;;;;;5128290;27;20043;-58
2022/01/06 10:30:18;;;;;;;16.08;3.67;;;3.40;99.90;;;;;;5109785;27;20400;-58
2022/01/06 10:32:44;;;;;;;19.48;3.70;;;3.40;99.90;;;;;;5136635;27;20035;-59
2022/01/06 10:35:14;;;;;;;24.55;3.70;;;3.40;99.90;;;;;;5107351;27;20112;-57
2022/01/06 10:37:43;;;;;;;21.00;4.10;;;3.40;99.90;;;;;;5127565;27;20055;-57
2022/01/06 10:40:16;;;;;;;26.50;4.78;;;3.40;99.90;;;;;;5127850;27;20477;-58
2022/01/06 10:42:46;;;;;;;19.65;3.78;;;3.60;99.90;;;;;;5103406;27;20166;-57
2022/01/06 10:45:21;;;;;;;18.20;3.90;;;3.70;99.90;;;;;;5134375;27;20492;-58
2022/01/06 10:47:56;;;;;;;18.15;3.78;;;3.80;99.90;;;;;;5133640;27;20050;-58
2022/01/06 10:50:36;;;;;;;19.50;4.10;;;4.00;99.90;;;;;;5134325;27;20049;-57
2022/01/06 10:53:10;;;;;;;15.73;3.53;;;4.20;99.90;;;;;;5128221;27;20277;-58
2022/01/06 10:55:43;;;;;;;23.58;4.25;;;4.40;99.90;;;;;;5130558;27;20512;-58
2022/01/06 10:58:17;;;;;;;21.23;4.15;;;4.50;99.90;;;;;;5132986;27;20043;-56
2022/01/06 11:00:46;;;;;;;21.70;4.43;;;4.60;99.90;;;;;;5130252;27;20552;-58
2022/01/06 11:03:16;;;;;;;20.10;4.10;;;4.80;99.90;;;;;;5136148;27;20082;-56
2022/01/06 11:05:50;;;;;;;16.23;3.83;;;4.90;99.90;;;;;;5133498;27;20413;-56
2022/01/06 11:08:20;;;;;;;19.63;4.25;;;5.10;99.90;;;;;;5136473;27;20042;-58
2022/01/06 11:10:50;;;;;;;19.58;4.57;;;5.20;99.90;;;;;;5132077;27;20114;-57
2022/01/06 11:13:17;;;;;;;19.63;4.13;;;5.30;99.90;;;;;;5133492;27;20124;-58
2022/01/06 11:15:44;;;;;;;27.80;4.35;;;5.40;99.90;;;;;;5132811;27;20087;-57
2022/01/06 11:18:16;;;;;;;22.88;4.28;;;5.40;99.90;;;;;;5131685;27;20038;-58
2022/01/06 11:20:42;;;;;;;26.23;4.90;;;5.60;99.90;;;;;;5132006;27;20065;-56
2022/01/06 11:23:22;;;;;;;19.40;3.97;;;5.60;99.90;;;;;;5131335;27;20370;-58
2022/01/06 11:26:11;;;;;;;21.52;4.78;;;5.60;99.90;;;;;;5114881;27;20047;-59
2022/01/06 11:28:37;;;;;;;16.20;4.13;;;5.70;99.90;;;;;;5128821;27;20035;-56
2022/01/06 11:31:21;;;;;;;20.10;4.70;;;5.70;99.90;;;;;;5117324;27;20118;-58
2022/01/06 11:33:50;;;;;;;17.90;3.70;;;5.80;99.90;;;;;;5110373;27;20092;-57
2022/01/06 11:36:25;;;;;;;23.25;4.80;;;5.80;99.90;;;;;;5129140;27;20035;-58
2022/01/06 11:38:52;;;;;;;24.13;4.05;;;5.70;99.90;;;;;;5134455;27;20043;-58
2022/01/06 11:41:18;;;;;;;19.10;4.13;;;5.70;99.90;;;;;;5129437;27;20390;-56
2022/01/06 11:43:46;;;;;;;30.35;4.38;;;5.70;99.90;;;;;;5133806;27;20051;-59
2022/01/06 11:46:13;;;;;;;21.02;4.07;;;5.70;99.90;;;;;;5129830;27;20103;-58
2022/01/06 11:48:46;;;;;;;21.38;3.97;;;5.70;99.90;;;;;;5131857;27;20035;-58
2022/01/06 11:51:42;;;;;;;17.88;3.88;;;5.60;99.90;;;;;;5131166;27;20039;-58
2022/01/06 11:54:17;;;;;;;23.27;4.05;;;5.60;99.90;;;;;;5116712;27;20504;-58
2022/01/06 11:56:49;;;;;;;23.90;4.38;;;5.60;99.90;;;;;;5132825;27;20088;-57
2022/01/06 11:59:16;;;;;;;20.42;4.82;;;5.60;99.90;;;;;;5132241;27;20058;-59
2022/01/06 12:01:47;;;;;;;23.95;4.68;;;5.60;99.90;;;;;;5133775;27;20095;-57
2022/01/06 12:04:16;;;;;;;19.40;3.75;;;5.60;99.90;;;;;;5134158;27;20114;-59
2022/01/06 12:06:42;;;;;;;18.63;3.92;;;5.60;99.90;;;;;;5132777;27;20106;-58
2022/01/06 12:09:22;;;;;;;20.83;3.42;;;5.60;99.90;;;;;;5132580;27;20130;-56
2022/01/06 12:12:04;;;;;;;20.83;4.32;;;5.60;99.90;;;;;;5131726;27;20489;-59
2022/01/06 12:14:31;;;;;;;24.80;4.60;;;5.60;99.90;;;;;;5116043;27;20047;-57
2022/01/06 12:17:06;;;;;;;22.42;3.75;;;5.60;99.90;;;;;;5117944;27;20051;-58
2022/01/06 12:19:32;;;;;;;21.27;3.72;;;5.60;99.90;;;;;;5135561;27;20104;-58
2022/01/06 12:21:58;;;;;;;20.48;4.75;;;5.60;99.90;;;;;;5096449;27;20047;-56
2022/01/06 12:24:24;;;;;;;17.17;3.65;;;5.60;99.90;;;;;;5116000;27;20054;-59
2022/01/06 12:26:50;;;;;;;23.80;4.03;;;5.60;99.90;;;;;;5115034;27;20579;-58
2022/01/06 12:29:22;;;;;;;24.98;3.75;;;5.60;99.90;;;;;;5135659;27;20542;-58
2022/01/06 12:31:49;;;;;;;22.27;3.75;;;5.70;99.90;;;;;;5116521;27;20035;-58
2022/01/06 12:34:16;;;;;;;20.90;3.65;;;5.70;99.90;;;;;;5129866;27;20039;-59
2022/01/06 12:36:45;;;;;;;18.70;3.83;;;5.60;99.90;;;;;;5131389;27;20405;-58
2022/01/06 12:39:16;;;;;;;19.45;3.60;;;5.70;99.90;;;;;;5128080;27;20043;-58
2022/01/06 12:41:44;;;;;;;18.73;3.60;;;5.70;99.90;;;;;;5127547;27;20039;-59
2022/01/06 12:44:10;;;;;;;17.90;3.30;;;5.70;99.90;;;;;;5115376;27;20035;-57
2022/01/06 12:46:41;;;;;;;22.73;3.53;;;5.70;99.90;;;;;;5116207;27;20043;-58
2022/01/06 12:49:08;;;;;;;29.65;4.40;;;5.80;99.90;;;;;;5131307;27;20178;-59
2022/01/06 12:51:39;;;;;;;20.58;3.42;;;5.80;99.90;;;;;;5125352;27;20112;-58
2022/01/06 12:54:13;;;;;;;16.50;3.42;;;5.80;99.90;;;;;;5125386;27;20493;-54
2022/01/06 12:56:51;;;;;;;25.52;4.07;;;5.80;99.90;;;;;;5113233;27;20118;-57